sensor_id;sensor_type;location;lat;lon;timestamp;noise_LAeq;noise_LA_min;noise_LA_max;noise_LA01;noise_LA95
11999;Laerm;40817;51.520;9.954;2023-08-06T00:01:40;40.53;32.93;44.69;;
11999;Laerm;40817;51.520;9.954;2023-08-06T00:04:08;42.43;35.36;55.53;;
11999;Laerm;40817;51.520;9.954;2023-08-06T00:06:36;39.65;32.35;44.51;;
11999;Laerm;40817;51.520;9.954;2023-08-06T00:09:03;39.14;33.44;43.14;;
11999;Laerm;40817;51.520;9.954;2023-08-06T00:11:31;40.19;32.35;69.15;;
11999;Laerm;40817;51.520;9.954;2023-08-06T00:13:58;38.79;32.93;42.22;;
11999;Laerm;40817;51.520;9.954;2023-08-06T00:16:28;38.39;32.93;41.89;;
11999;Laerm;40817;51.520;9.954;2023-08-06T00:18:57;40.48;30.89;51.78;;
11999;Laerm;40817;51.520;9.954;2023-08-06T00:21:24;41.36;35.01;47.55;;
11999;Laerm;40817;51.520;9.954;2023-08-06T00:23:52;38.91;33.44;46.59;;
11999;Laerm;40817;51.520;9.954;2023-08-06T00:26:19;39.19;32.35;44.47;;
11999;Laerm;40817;51.520;9.954;2023-08-06T00:28:47;38.36;31.68;49.23;;
11999;Laerm;40817;51.520;9.954;2023-08-06T00:31:14;38.55;29.92;46.05;;
11999;Laerm;40817;51.520;9.954;2023-08-06T00:33:42;38.19;32.93;43.19;;
11999;Laerm;40817;51.520;9.954;2023-08-06T00:36:11;38.01;30.89;43.04;;
11999;Laerm;40817;51.520;9.954;2023-08-06T00:38:38;38.55;31.68;42.82;;
11999;Laerm;40817;51.520;9.954;2023-08-06T00:41:05;39.68;32.93;44.90;;
11999;Laerm;40817;51.520;9.954;2023-08-06T00:43:35;38.83;33.44;42.35;;
11999;Laerm;40817;51.520;9.954;2023-08-06T00:46:02;42.42;33.90;58.96;;
11999;Laerm;40817;51.520;9.954;2023-08-06T00:48:31;40.50;33.90;57.54;;
11999;Laerm;40817;51.520;9.954;2023-08-06T00:50:58;40.83;31.68;50.23;;
11999;Laerm;40817;51.520;9.954;2023-08-06T00:53:27;41.49;32.93;47.59;;
11999;Laerm;40817;51.520;9.954;2023-08-06T00:55:55;41.82;34.31;44.83;;
11999;Laerm;40817;51.520;9.954;2023-08-06T00:58:23;40.34;35.04;44.43;;
11999;Laerm;40817;51.520;9.954;2023-08-06T01:00:50;40.14;31.68;43.68;;
11999;Laerm;40817;51.520;9.954;2023-08-06T01:03:18;41.97;35.66;47.81;;
11999;Laerm;40817;51.520;9.954;2023-08-06T01:05:46;42.73;33.97;68.05;;
11999;Laerm;40817;51.520;9.954;2023-08-06T01:08:28;39.47;32.35;44.03;;
11999;Laerm;40817;51.520;9.954;2023-08-06T01:11:17;40.34;32.93;44.65;;
11999;Laerm;40817;51.520;9.954;2023-08-06T01:13:55;41.24;34.69;43.90;;
11999;Laerm;40817;51.520;9.954;2023-08-06T01:16:25;40.57;32.35;43.94;;
11999;Laerm;40817;51.520;9.954;2023-08-06T01:18:53;42.00;35.94;45.42;;
11999;Laerm;40817;51.520;9.954;2023-08-06T01:21:22;41.21;35.66;43.86;;
11999;Laerm;40817;51.520;9.954;2023-08-06T01:23:49;41.51;33.90;44.51;;
11999;Laerm;40817;51.520;9.954;2023-08-06T01:26:28;41.54;35.66;44.31;;
11999;Laerm;40817;51.520;9.954;2023-08-06T01:29:06;41.45;36.91;44.65;;
11999;Laerm;40817;51.520;9.954;2023-08-06T01:31:38;40.74;35.66;46.43;;
11999;Laerm;40817;51.520;9.954;2023-08-06T01:34:20;42.72;36.20;50.38;;
11999;Laerm;40817;51.520;9.954;2023-08-06T01:36:50;40.37;35.04;46.69;;
11999;Laerm;40817;51.520;9.954;2023-08-06T01:39:18;40.50;35.66;44.97;;
11999;Laerm;40817;51.520;9.954;2023-08-06T01:41:47;40.17;35.04;43.49;;
11999;Laerm;40817;51.520;9.954;2023-08-06T01:44:15;40.05;35.04;43.04;;
11999;Laerm;40817;51.520;9.954;2023-08-06T01:46:42;40.00;34.69;45.14;;
11999;Laerm;40817;51.520;9.954;2023-08-06T01:49:10;40.05;33.90;43.54;;
11999;Laerm;40817;51.520;9.954;2023-08-06T01:51:37;40.16;31.68;43.54;;
11999;Laerm;40817;51.520;9.954;2023-08-06T01:54:06;39.94;31.68;55.91;;
11999;Laerm;40817;51.520;9.954;2023-08-06T01:56:33;40.25;35.66;43.29;;
11999;Laerm;40817;51.520;9.954;2023-08-06T01:59:01;40.12;35.66;43.09;;
11999;Laerm;40817;51.520;9.954;2023-08-06T02:01:28;41.22;35.36;45.23;;
11999;Laerm;40817;51.520;9.954;2023-08-06T02:03:56;40.77;36.20;45.11;;
11999;Laerm;40817;51.520;9.954;2023-08-06T02:06:23;39.79;35.36;43.14;;
11999;Laerm;40817;51.520;9.954;2023-08-06T02:08:51;39.91;32.93;43.24;;
11999;Laerm;40817;51.520;9.954;2023-08-06T02:11:19;39.93;34.69;51.89;;
11999;Laerm;40817;51.520;9.954;2023-08-06T02:13:47;40.17;34.69;43.49;;
11999;Laerm;40817;51.520;9.954;2023-08-06T02:16:14;40.49;35.04;44.43;;
11999;Laerm;40817;51.520;9.954;2023-08-06T02:18:42;41.15;31.68;46.33;;
11999;Laerm;40817;51.520;9.954;2023-08-06T02:21:09;41.60;36.91;44.62;;
11999;Laerm;40817;51.520;9.954;2023-08-06T02:23:37;41.31;35.36;45.51;;
11999;Laerm;40817;51.520;9.954;2023-08-06T02:26:04;40.02;35.66;44.27;;
11999;Laerm;40817;51.520;9.954;2023-08-06T02:28:33;41.93;33.90;55.12;;
11999;Laerm;40817;51.520;9.954;2023-08-06T02:31:00;41.45;36.20;49.36;;
11999;Laerm;40817;51.520;9.954;2023-08-06T02:33:28;42.13;36.69;50.02;;
11999;Laerm;40817;51.520;9.954;2023-08-06T02:36:03;40.98;35.36;44.23;;
11999;Laerm;40817;51.520;9.954;2023-08-06T02:38:31;40.47;34.31;44.11;;
11999;Laerm;40817;51.520;9.954;2023-08-06T02:41:02;40.17;34.31;43.54;;
11999;Laerm;40817;51.520;9.954;2023-08-06T02:43:29;40.28;34.31;43.58;;
11999;Laerm;40817;51.520;9.954;2023-08-06T02:45:59;40.85;34.69;43.77;;
11999;Laerm;40817;51.520;9.954;2023-08-06T02:48:27;42.30;32.93;45.39;;
11999;Laerm;40817;51.520;9.954;2023-08-06T02:50:58;41.17;36.69;44.19;;
11999;Laerm;40817;51.520;9.954;2023-08-06T02:53:26;41.71;35.66;45.42;;
11999;Laerm;40817;51.520;9.954;2023-08-06T02:55:53;40.49;33.44;44.23;;
11999;Laerm;40817;51.520;9.954;2023-08-06T02:58:21;40.08;32.35;44.12;;
11999;Laerm;40817;51.520;9.954;2023-08-06T03:01:02;41.30;35.66;66.41;;
11999;Laerm;40817;51.520;9.954;2023-08-06T03:03:49;41.27;36.20;49.98;;
11999;Laerm;40817;51.520;9.954;2023-08-06T03:06:17;42.36;35.94;70.45;;
11999;Laerm;40817;51.520;9.954;2023-08-06T03:08:45;40.60;35.94;43.99;;
11999;Laerm;40817;51.520;9.954;2023-08-06T03:11:13;40.97;35.04;46.43;;
11999;Laerm;40817;51.520;9.954;2023-08-06T03:13:40;43.20;35.36;74.92;;
11999;Laerm;40817;51.520;9.954;2023-08-06T03:16:09;41.76;36.45;53.86;;
11999;Laerm;40817;51.520;9.954;2023-08-06T03:18:36;41.13;34.31;48.61;;
11999;Laerm;40817;51.520;9.954;2023-08-06T03:21:04;41.74;36.69;44.69;;
11999;Laerm;40817;51.520;9.954;2023-08-06T03:23:32;41.78;36.45;50.28;;
11999;Laerm;40817;51.520;9.954;2023-08-06T03:26:02;41.50;35.94;44.35;;
11999;Laerm;40817;51.520;9.954;2023-08-06T03:28:29;40.93;34.31;48.08;;
11999;Laerm;40817;51.520;9.954;2023-08-06T03:31:00;41.11;35.66;45.51;;
11999;Laerm;40817;51.520;9.954;2023-08-06T03:33:30;41.03;32.93;44.15;;
11999;Laerm;40817;51.520;9.954;2023-08-06T03:35:57;41.71;35.94;45.30;;
11999;Laerm;40817;51.520;9.954;2023-08-06T03:38:26;40.89;35.94;45.01;;
11999;Laerm;40817;51.520;9.954;2023-08-06T03:40:54;40.57;33.44;43.68;;
11999;Laerm;40817;51.520;9.954;2023-08-06T03:43:21;42.72;36.20;63.86;;
11999;Laerm;40817;51.520;9.954;2023-08-06T03:45:49;43.62;37.12;61.01;;
11999;Laerm;40817;51.520;9.954;2023-08-06T03:48:16;41.80;37.12;48.05;;
11999;Laerm;40817;51.520;9.954;2023-08-06T03:50:45;42.07;37.32;46.57;;
11999;Laerm;40817;51.520;9.954;2023-08-06T03:53:13;42.25;38.05;45.17;;
11999;Laerm;40817;51.520;9.954;2023-08-06T03:55:40;41.20;35.36;45.45;;
11999;Laerm;40817;51.520;9.954;2023-08-06T03:58:07;41.25;35.66;47.08;;
11999;Laerm;40817;51.520;9.954;2023-08-06T04:00:35;41.69;36.45;44.16;;
11999;Laerm;40817;51.520;9.954;2023-08-06T04:03:02;41.97;37.88;46.35;;
11999;Laerm;40817;51.520;9.954;2023-08-06T04:05:31;42.05;37.52;46.10;;
11999;Laerm;40817;51.520;9.954;2023-08-06T04:08:00;41.63;37.12;45.17;;
11999;Laerm;40817;51.520;9.954;2023-08-06T04:10:28;42.06;38.32;44.65;;
11999;Laerm;40817;51.520;9.954;2023-08-06T04:12:55;41.27;37.12;43.86;;
11999;Laerm;40817;51.520;9.954;2023-08-06T04:15:23;41.80;37.70;44.35;;
11999;Laerm;40817;51.520;9.954;2023-08-06T04:17:50;41.65;37.52;45.86;;
11999;Laerm;40817;51.520;9.954;2023-08-06T04:20:18;41.96;37.88;44.73;;
11999;Laerm;40817;51.520;9.954;2023-08-06T04:22:45;42.43;38.37;52.53;;
11999;Laerm;40817;51.520;9.954;2023-08-06T04:25:14;42.88;39.08;45.60;;
11999;Laerm;40817;51.520;9.954;2023-08-06T04:27:46;43.66;40.13;46.38;;
11999;Laerm;40817;51.520;9.954;2023-08-06T04:30:14;43.67;39.08;59.30;;
11999;Laerm;40817;51.520;9.954;2023-08-06T04:32:42;43.68;40.13;47.34;;
11999;Laerm;40817;51.520;9.954;2023-08-06T04:35:09;43.98;40.23;56.52;;
11999;Laerm;40817;51.520;9.954;2023-08-06T04:37:37;42.73;38.95;45.23;;
11999;Laerm;40817;51.520;9.954;2023-08-06T04:40:06;42.81;38.52;46.35;;
11999;Laerm;40817;51.520;9.954;2023-08-06T04:42:35;43.51;39.70;46.13;;
11999;Laerm;40817;51.520;9.954;2023-08-06T04:45:04;43.77;39.81;69.19;;
11999;Laerm;40817;51.520;9.954;2023-08-06T04:47:31;45.97;39.46;63.69;;
11999;Laerm;40817;51.520;9.954;2023-08-06T04:49:59;42.69;38.05;45.30;;
11999;Laerm;40817;51.520;9.954;2023-08-06T04:52:26;42.85;37.52;44.90;;
11999;Laerm;40817;51.520;9.954;2023-08-06T04:54:54;42.57;38.37;44.80;;
11999;Laerm;40817;51.520;9.954;2023-08-06T04:57:22;42.79;37.88;45.17;;
11999;Laerm;40817;51.520;9.954;2023-08-06T04:59:51;42.49;37.70;45.75;;
11999;Laerm;40817;51.520;9.954;2023-08-06T05:02:18;42.89;36.45;54.38;;
11999;Laerm;40817;51.520;9.954;2023-08-06T05:04:46;42.43;38.37;44.73;;
11999;Laerm;40817;51.520;9.954;2023-08-06T05:07:13;43.01;39.21;45.23;;
11999;Laerm;40817;51.520;9.954;2023-08-06T05:09:41;42.98;38.67;59.72;;
11999;Laerm;40817;51.520;9.954;2023-08-06T05:12:09;43.38;38.37;64.88;;
11999;Laerm;40817;51.520;9.954;2023-08-06T05:14:37;42.44;36.91;55.88;;
11999;Laerm;40817;51.520;9.954;2023-08-06T05:17:05;45.35;37.88;61.70;;
11999;Laerm;40817;51.520;9.954;2023-08-06T05:19:35;43.20;39.21;48.10;;
11999;Laerm;40817;51.520;9.954;2023-08-06T05:22:03;45.74;41.06;55.85;;
11999;Laerm;40817;51.520;9.954;2023-08-06T05:24:30;43.00;38.21;46.57;;
11999;Laerm;40817;51.520;9.954;2023-08-06T05:26:58;43.16;38.67;50.70;;
11999;Laerm;40817;51.520;9.954;2023-08-06T05:29:25;43.76;41.06;51.77;;
11999;Laerm;40817;51.520;9.954;2023-08-06T05:31:53;43.80;40.03;48.45;;
11999;Laerm;40817;51.520;9.954;2023-08-06T05:34:22;42.50;37.70;45.60;;
11999;Laerm;40817;51.520;9.954;2023-08-06T05:36:49;43.56;40.03;46.89;;
11999;Laerm;40817;51.520;9.954;2023-08-06T05:39:17;42.00;37.32;45.54;;
11999;Laerm;40817;51.520;9.954;2023-08-06T05:41:44;41.74;37.32;48.34;;
11999;Laerm;40817;51.520;9.954;2023-08-06T05:44:11;42.26;37.70;45.48;;
11999;Laerm;40817;51.520;9.954;2023-08-06T05:46:45;42.48;38.52;46.05;;
11999;Laerm;40817;51.520;9.954;2023-08-06T05:49:12;50.03;39.11;79.40;;
11999;Laerm;40817;51.520;9.954;2023-08-06T05:51:42;58.18;38.21;74.36;;
11999;Laerm;40817;51.520;9.954;2023-08-06T05:54:09;43.48;39.21;61.05;;
11999;Laerm;40817;51.520;9.954;2023-08-06T05:56:38;43.02;38.95;51.64;;
11999;Laerm;40817;51.520;9.954;2023-08-06T05:59:06;43.30;39.92;59.46;;
11999;Laerm;40817;51.520;9.954;2023-08-06T06:01:33;42.83;39.08;54.93;;
11999;Laerm;40817;51.520;9.954;2023-08-06T06:04:01;43.44;38.52;62.16;;
11999;Laerm;40817;51.520;9.954;2023-08-06T06:06:29;42.75;38.52;59.24;;
11999;Laerm;40817;51.520;9.954;2023-08-06T06:08:57;42.43;37.70;58.39;;
11999;Laerm;40817;51.520;9.954;2023-08-06T06:11:25;43.26;39.46;49.11;;
11999;Laerm;40817;51.520;9.954;2023-08-06T06:13:52;42.81;37.70;49.69;;
11999;Laerm;40817;51.520;9.954;2023-08-06T06:16:20;43.80;39.34;56.71;;
11999;Laerm;40817;51.520;9.954;2023-08-06T06:18:52;44.23;37.70;59.75;;
11999;Laerm;40817;51.520;9.954;2023-08-06T06:21:24;44.23;39.70;56.86;;
11999;Laerm;40817;51.520;9.954;2023-08-06T06:23:59;43.80;38.67;50.56;;
11999;Laerm;40817;51.520;9.954;2023-08-06T06:26:27;41.71;37.70;47.34;;
11999;Laerm;40817;51.520;9.954;2023-08-06T06:28:54;41.57;36.69;45.66;;
11999;Laerm;40817;51.520;9.954;2023-08-06T06:31:21;42.02;37.32;45.83;;
11999;Laerm;40817;51.520;9.954;2023-08-06T06:33:49;42.22;36.69;45.86;;
11999;Laerm;40817;51.520;9.954;2023-08-06T06:36:19;42.66;39.21;54.51;;
11999;Laerm;40817;51.520;9.954;2023-08-06T06:38:48;42.32;38.67;49.25;;
11999;Laerm;40817;51.520;9.954;2023-08-06T06:41:26;42.50;38.52;45.33;;
11999;Laerm;40817;51.520;9.954;2023-08-06T06:43:55;42.45;38.47;45.91;;
11999;Laerm;40817;51.520;9.954;2023-08-06T06:46:23;42.21;36.91;51.37;;
11999;Laerm;40817;51.520;9.954;2023-08-06T06:48:50;41.95;37.88;45.11;;
11999;Laerm;40817;51.520;9.954;2023-08-06T06:51:18;42.21;36.91;67.89;;
11999;Laerm;40817;51.520;9.954;2023-08-06T06:53:45;41.77;37.88;48.15;;
11999;Laerm;40817;51.520;9.954;2023-08-06T06:56:13;41.84;37.52;52.34;;
11999;Laerm;40817;51.520;9.954;2023-08-06T06:58:45;41.85;36.45;52.26;;
11999;Laerm;40817;51.520;9.954;2023-08-06T07:01:12;45.00;39.70;55.63;;
11999;Laerm;40817;51.520;9.954;2023-08-06T07:03:40;46.00;40.80;53.33;;
11999;Laerm;40817;51.520;9.954;2023-08-06T07:06:07;44.45;38.81;52.49;;
11999;Laerm;40817;51.520;9.954;2023-08-06T07:08:35;41.71;37.32;44.80;;
11999;Laerm;40817;51.520;9.954;2023-08-06T07:11:04;41.44;36.10;47.28;;
11999;Laerm;40817;51.520;9.954;2023-08-06T07:13:34;41.88;37.87;46.82;;
11999;Laerm;40817;51.520;9.954;2023-08-06T07:16:03;42.84;37.88;47.63;;
11999;Laerm;40817;51.520;9.954;2023-08-06T07:18:31;42.80;38.95;47.50;;
11999;Laerm;40817;51.520;9.954;2023-08-06T07:20:58;43.16;37.12;53.35;;
11999;Laerm;40817;51.520;9.954;2023-08-06T07:23:26;41.40;36.69;46.28;;
11999;Laerm;40817;51.520;9.954;2023-08-06T07:25:54;42.26;37.70;49.56;;
11999;Laerm;40817;51.520;9.954;2023-08-06T07:28:26;40.91;35.94;48.87;;
11999;Laerm;40817;51.520;9.954;2023-08-06T07:30:53;52.02;36.20;62.14;;
11999;Laerm;40817;51.520;9.954;2023-08-06T07:33:22;48.23;36.20;60.36;;
11999;Laerm;40817;51.520;9.954;2023-08-06T07:35:49;40.37;35.94;45.83;;
11999;Laerm;40817;51.520;9.954;2023-08-06T07:38:17;40.10;35.66;43.90;;
11999;Laerm;40817;51.520;9.954;2023-08-06T07:40:45;39.92;35.36;45.04;;
11999;Laerm;40817;51.520;9.954;2023-08-06T07:43:12;40.14;35.36;49.47;;
11999;Laerm;40817;51.520;9.954;2023-08-06T07:45:40;43.46;38.67;51.67;;
11999;Laerm;40817;51.520;9.954;2023-08-06T07:48:07;41.70;36.45;50.34;;
11999;Laerm;40817;51.520;9.954;2023-08-06T07:50:36;40.93;35.36;55.23;;
11999;Laerm;40817;51.520;9.954;2023-08-06T07:53:04;41.91;38.05;47.79;;
11999;Laerm;40817;51.520;9.954;2023-08-06T07:55:32;52.03;36.20;62.82;;
11999;Laerm;40817;51.520;9.954;2023-08-06T07:57:59;53.22;45.54;60.62;;
11999;Laerm;40817;51.520;9.954;2023-08-06T08:00:27;48.17;37.32;59.72;;
11999;Laerm;40817;51.520;9.954;2023-08-06T08:02:54;40.20;35.86;45.62;;
11999;Laerm;40817;51.520;9.954;2023-08-06T08:05:22;41.58;35.04;50.23;;
11999;Laerm;40817;51.520;9.954;2023-08-06T08:07:54;40.93;35.94;47.76;;
11999;Laerm;40817;51.520;9.954;2023-08-06T08:10:22;40.04;35.36;53.78;;
11999;Laerm;40817;51.520;9.954;2023-08-06T08:12:49;40.30;36.45;50.20;;
11999;Laerm;40817;51.520;9.954;2023-08-06T08:15:17;41.21;35.66;46.07;;
11999;Laerm;40817;51.520;9.954;2023-08-06T08:17:44;41.92;35.36;47.48;;
11999;Laerm;40817;51.520;9.954;2023-08-06T08:20:16;41.48;36.98;45.72;;
11999;Laerm;40817;51.520;9.954;2023-08-06T08:22:43;41.00;34.31;49.77;;
11999;Laerm;40817;51.520;9.954;2023-08-06T08:25:12;42.29;37.32;52.24;;
11999;Laerm;40817;51.520;9.954;2023-08-06T08:27:41;42.44;37.70;55.84;;
11999;Laerm;40817;51.520;9.954;2023-08-06T08:30:09;40.78;35.94;46.36;;
11999;Laerm;40817;51.520;9.954;2023-08-06T08:32:36;43.88;37.70;58.73;;
11999;Laerm;40817;51.520;9.954;2023-08-06T08:35:05;42.84;35.66;48.61;;
11999;Laerm;40817;51.520;9.954;2023-08-06T08:37:32;45.68;38.05;60.01;;
11999;Laerm;40817;51.520;9.954;2023-08-06T08:39:59;44.84;39.08;54.95;;
11999;Laerm;40817;51.520;9.954;2023-08-06T08:42:28;43.37;37.52;52.92;;
11999;Laerm;40817;51.520;9.954;2023-08-06T08:44:56;43.56;37.70;58.57;;
11999;Laerm;40817;51.520;9.954;2023-08-06T08:47:25;46.78;37.35;72.94;;
11999;Laerm;40817;51.520;9.954;2023-08-06T08:49:54;43.40;38.37;55.76;;
11999;Laerm;40817;51.520;9.954;2023-08-06T08:52:22;41.55;36.20;47.00;;
11999;Laerm;40817;51.520;9.954;2023-08-06T08:54:52;42.50;38.47;45.60;;
11999;Laerm;40817;51.520;9.954;2023-08-06T08:57:21;42.83;39.21;45.20;;
11999;Laerm;40817;51.520;9.954;2023-08-06T08:59:50;42.26;38.05;51.78;;
11999;Laerm;40817;51.520;9.954;2023-08-06T09:02:18;46.61;39.11;57.90;;
11999;Laerm;40817;51.520;9.954;2023-08-06T09:04:49;48.47;42.41;57.18;;
11999;Laerm;40817;51.520;9.954;2023-08-06T09:07:19;45.06;38.81;56.86;;
11999;Laerm;40817;51.520;9.954;2023-08-06T09:09:49;42.37;38.95;48.77;;
11999;Laerm;40817;51.520;9.954;2023-08-06T09:12:18;42.41;39.21;49.64;;
11999;Laerm;40817;51.520;9.954;2023-08-06T09:14:46;43.14;39.34;61.14;;
11999;Laerm;40817;51.520;9.954;2023-08-06T09:17:15;43.38;38.95;63.47;;
11999;Laerm;40817;51.520;9.954;2023-08-06T09:19:46;42.65;38.81;49.21;;
11999;Laerm;40817;51.520;9.954;2023-08-06T09:22:16;43.27;38.74;57.54;;
11999;Laerm;40817;51.520;9.954;2023-08-06T09:24:43;42.10;38.52;47.93;;
11999;Laerm;40817;51.520;9.954;2023-08-06T09:27:12;42.72;38.21;46.59;;
11999;Laerm;40817;51.520;9.954;2023-08-06T09:29:42;42.40;37.12;53.77;;
11999;Laerm;40817;51.520;9.954;2023-08-06T09:32:11;43.09;38.67;52.15;;
11999;Laerm;40817;51.520;9.954;2023-08-06T09:34:43;43.16;39.21;58.05;;
11999;Laerm;40817;51.520;9.954;2023-08-06T09:37:11;42.48;37.32;55.04;;
11999;Laerm;40817;51.520;9.954;2023-08-06T09:39:40;42.00;37.52;49.44;;
11999;Laerm;40817;51.520;9.954;2023-08-06T09:42:07;42.28;38.37;57.45;;
11999;Laerm;40817;51.520;9.954;2023-08-06T09:44:35;42.00;37.52;50.23;;
11999;Laerm;40817;51.520;9.954;2023-08-06T09:47:04;41.68;36.91;46.82;;
11999;Laerm;40817;51.520;9.954;2023-08-06T09:49:43;41.90;37.12;44.80;;
11999;Laerm;40817;51.520;9.954;2023-08-06T09:52:13;40.71;36.45;44.73;;
11999;Laerm;40817;51.520;9.954;2023-08-06T09:54:43;41.82;37.52;52.24;;
11999;Laerm;40817;51.520;9.954;2023-08-06T09:57:12;41.96;36.45;58.17;;
11999;Laerm;40817;51.520;9.954;2023-08-06T09:59:43;47.44;38.52;62.33;;
11999;Laerm;40817;51.520;9.954;2023-08-06T10:02:13;50.12;41.38;61.53;;
11999;Laerm;40817;51.520;9.954;2023-08-06T10:04:44;42.67;39.21;55.81;;
11999;Laerm;40817;51.520;9.954;2023-08-06T10:07:13;41.95;38.05;56.33;;
11999;Laerm;40817;51.520;9.954;2023-08-06T10:09:41;42.78;38.37;52.44;;
11999;Laerm;40817;51.520;9.954;2023-08-06T10:12:09;43.42;38.67;54.05;;
11999;Laerm;40817;51.520;9.954;2023-08-06T10:14:38;42.31;37.88;56.93;;
11999;Laerm;40817;51.520;9.954;2023-08-06T10:17:07;41.27;37.52;49.41;;
11999;Laerm;40817;51.520;9.954;2023-08-06T10:19:36;42.33;38.05;59.60;;
11999;Laerm;40817;51.520;9.954;2023-08-06T10:22:13;42.62;38.67;52.55;;
11999;Laerm;40817;51.520;9.954;2023-08-06T10:24:52;44.11;39.08;69.64;;
11999;Laerm;40817;51.520;9.954;2023-08-06T10:27:22;46.26;38.21;70.53;;
11999;Laerm;40817;51.520;9.954;2023-08-06T10:29:50;43.50;38.67;54.54;;
11999;Laerm;40817;51.520;9.954;2023-08-06T10:32:17;42.77;38.67;46.28;;
11999;Laerm;40817;51.520;9.954;2023-08-06T10:34:59;42.33;37.88;46.10;;
11999;Laerm;40817;51.520;9.954;2023-08-06T10:37:37;44.10;39.21;53.58;;
11999;Laerm;40817;51.520;9.954;2023-08-06T10:40:07;43.38;39.11;56.54;;
11999;Laerm;40817;51.520;9.954;2023-08-06T10:42:35;43.32;39.81;60.36;;
11999;Laerm;40817;51.520;9.954;2023-08-06T10:45:14;42.38;35.94;52.59;;
11999;Laerm;40817;51.520;9.954;2023-08-06T10:47:43;43.11;38.67;49.49;;
11999;Laerm;40817;51.520;9.954;2023-08-06T10:50:14;42.99;36.69;48.54;;
11999;Laerm;40817;51.520;9.954;2023-08-06T10:52:45;42.92;39.34;50.89;;
11999;Laerm;40817;51.520;9.954;2023-08-06T10:55:14;43.00;39.08;48.21;;
11999;Laerm;40817;51.520;9.954;2023-08-06T10:57:48;42.14;37.12;55.75;;
11999;Laerm;40817;51.520;9.954;2023-08-06T11:00:16;41.90;37.88;53.39;;
11999;Laerm;40817;51.520;9.954;2023-08-06T11:02:44;41.95;37.52;51.33;;
11999;Laerm;40817;51.520;9.954;2023-08-06T11:05:13;42.85;37.70;51.91;;
11999;Laerm;40817;51.520;9.954;2023-08-06T11:07:41;44.05;38.95;62.47;;
11999;Laerm;40817;51.520;9.954;2023-08-06T11:10:12;43.39;38.81;53.99;;
11999;Laerm;40817;51.520;9.954;2023-08-06T11:12:40;43.76;37.87;55.99;;
11999;Laerm;40817;51.520;9.954;2023-08-06T11:15:09;44.47;39.08;61.05;;
11999;Laerm;40817;51.520;9.954;2023-08-06T11:17:40;42.22;38.21;59.76;;
11999;Laerm;40817;51.520;9.954;2023-08-06T11:20:09;42.61;37.88;55.23;;
11999;Laerm;40817;51.520;9.954;2023-08-06T11:22:38;42.53;38.52;49.88;;
11999;Laerm;40817;51.520;9.954;2023-08-06T11:25:07;43.29;38.05;65.42;;
11999;Laerm;40817;51.520;9.954;2023-08-06T11:27:36;42.62;38.32;54.58;;
11999;Laerm;40817;51.520;9.954;2023-08-06T11:30:05;42.14;38.05;53.56;;
11999;Laerm;40817;51.520;9.954;2023-08-06T11:32:33;42.07;36.91;63.38;;
11999;Laerm;40817;51.520;9.954;2023-08-06T11:35:11;41.60;37.32;61.17;;
11999;Laerm;40817;51.520;9.954;2023-08-06T11:37:44;42.63;37.88;62.15;;
11999;Laerm;40817;51.520;9.954;2023-08-06T11:40:14;44.35;39.46;62.77;;
11999;Laerm;40817;51.520;9.954;2023-08-06T11:42:46;43.14;38.81;60.50;;
11999;Laerm;40817;51.520;9.954;2023-08-06T11:45:14;42.63;37.52;56.50;;
11999;Laerm;40817;51.520;9.954;2023-08-06T11:47:41;42.94;37.88;65.07;;
11999;Laerm;40817;51.520;9.954;2023-08-06T11:50:09;43.08;38.95;52.47;;
11999;Laerm;40817;51.520;9.954;2023-08-06T11:52:54;43.90;38.52;66.79;;
11999;Laerm;40817;51.520;9.954;2023-08-06T11:55:25;42.39;37.35;50.30;;
11999;Laerm;40817;51.520;9.954;2023-08-06T11:57:54;43.04;37.52;56.23;;
11999;Laerm;40817;51.520;9.954;2023-08-06T12:00:25;42.88;38.37;57.29;;
11999;Laerm;40817;51.520;9.954;2023-08-06T12:02:53;41.88;37.12;59.92;;
11999;Laerm;40817;51.520;9.954;2023-08-06T12:05:23;42.52;37.70;55.57;;
11999;Laerm;40817;51.520;9.954;2023-08-06T12:07:53;41.86;37.70;47.04;;
11999;Laerm;40817;51.520;9.954;2023-08-06T12:10:24;42.38;37.32;59.09;;
11999;Laerm;40817;51.520;9.954;2023-08-06T12:12:54;42.79;38.21;57.18;;
11999;Laerm;40817;51.520;9.954;2023-08-06T12:15:22;42.87;37.12;53.08;;
11999;Laerm;40817;51.520;9.954;2023-08-06T12:17:51;42.23;37.32;48.63;;
11999;Laerm;40817;51.520;9.954;2023-08-06T12:20:18;44.38;37.70;58.49;;
11999;Laerm;40817;51.520;9.954;2023-08-06T12:22:46;42.97;38.52;55.87;;
11999;Laerm;40817;51.520;9.954;2023-08-06T12:25:14;44.61;40.43;54.78;;
11999;Laerm;40817;51.520;9.954;2023-08-06T12:27:43;47.65;39.08;62.87;;
11999;Laerm;40817;51.520;9.954;2023-08-06T12:30:13;45.69;38.67;61.85;;
11999;Laerm;40817;51.520;9.954;2023-08-06T12:32:41;43.42;38.21;51.33;;
11999;Laerm;40817;51.520;9.954;2023-08-06T12:35:09;42.92;39.58;47.95;;
11999;Laerm;40817;51.520;9.954;2023-08-06T12:37:36;43.10;38.67;52.59;;
11999;Laerm;40817;51.520;9.954;2023-08-06T12:40:06;42.22;38.37;46.69;;
11999;Laerm;40817;51.520;9.954;2023-08-06T12:42:34;42.39;37.52;54.54;;
11999;Laerm;40817;51.520;9.954;2023-08-06T12:45:01;42.06;37.88;49.06;;
11999;Laerm;40817;51.520;9.954;2023-08-06T12:47:30;43.24;38.37;67.89;;
11999;Laerm;40817;51.520;9.954;2023-08-06T12:49:58;42.04;37.88;55.20;;
11999;Laerm;40817;51.520;9.954;2023-08-06T12:52:25;43.08;37.88;52.24;;
11999;Laerm;40817;51.520;9.954;2023-08-06T12:54:53;43.21;39.46;50.15;;
11999;Laerm;40817;51.520;9.954;2023-08-06T12:57:20;43.52;40.53;48.31;;
11999;Laerm;40817;51.520;9.954;2023-08-06T12:59:48;43.85;41.22;47.68;;
11999;Laerm;40817;51.520;9.954;2023-08-06T13:02:15;43.89;41.14;53.86;;
11999;Laerm;40817;51.520;9.954;2023-08-06T13:04:47;44.05;40.62;54.00;;
11999;Laerm;40817;51.520;9.954;2023-08-06T13:07:14;43.49;40.53;52.72;;
11999;Laerm;40817;51.520;9.954;2023-08-06T13:09:42;43.94;38.37;56.00;;
11999;Laerm;40817;51.520;9.954;2023-08-06T13:12:09;43.70;40.62;53.13;;
11999;Laerm;40817;51.520;9.954;2023-08-06T13:14:37;43.83;39.70;56.06;;
11999;Laerm;40817;51.520;9.954;2023-08-06T13:17:04;43.51;40.23;51.12;;
11999;Laerm;40817;51.520;9.954;2023-08-06T13:19:33;43.51;40.62;55.77;;
11999;Laerm;40817;51.520;9.954;2023-08-06T13:22:04;43.33;38.52;54.04;;
11999;Laerm;40817;51.520;9.954;2023-08-06T13:24:35;42.65;37.88;55.18;;
11999;Laerm;40817;51.520;9.954;2023-08-06T13:27:03;44.14;37.52;57.03;;
11999;Laerm;40817;51.520;9.954;2023-08-06T13:29:30;48.16;39.21;68.32;;
11999;Laerm;40817;51.520;9.954;2023-08-06T13:31:58;50.03;40.33;62.57;;
11999;Laerm;40817;51.520;9.954;2023-08-06T13:34:25;61.95;47.16;69.86;;
11999;Laerm;40817;51.520;9.954;2023-08-06T13:36:52;65.17;52.30;74.36;;
11999;Laerm;40817;51.520;9.954;2023-08-06T13:39:21;64.35;57.04;72.25;;
11999;Laerm;40817;51.520;9.954;2023-08-06T13:41:49;67.57;58.41;82.79;;
11999;Laerm;40817;51.520;9.954;2023-08-06T13:44:16;62.59;55.17;79.54;;
11999;Laerm;40817;51.520;9.954;2023-08-06T13:46:43;61.80;53.89;78.13;;
11999;Laerm;40817;51.520;9.954;2023-08-06T13:49:11;58.90;49.98;77.29;;
11999;Laerm;40817;51.520;9.954;2023-08-06T13:51:38;58.62;49.26;75.74;;
11999;Laerm;40817;51.520;9.954;2023-08-06T13:54:06;62.82;48.29;77.91;;